Time;durP1;ratioP1;P1;durP2;ratioP2;P2;SDS_P1;SDS_P2;PMS_P1;PMS_P2;Temp;Humidity;BMP_temperature;BMP_pressure;BME280_temperature;BME280_humidity;BME280_pressure;Samples;Min_cycle;Max_cycle;Signal;HPM_P1;HPM_P2
2021/05/25 00:01:26;;;;;;;9.32;2.75;;;564.00;1766.40;;;;;;5073631;28;20020;-88
2021/05/25 00:03:52;;;;;;;15.95;3.30;;;564.10;1766.40;;;;;;5090703;28;20024;-87
2021/05/25 00:06:17;;;;;;;17.33;3.63;;;564.10;1766.40;;;;;;5073165;28;20056;-88
2021/05/25 00:08:44;;;;;;;17.00;3.28;;;564.00;1792.00;;;;;;5073132;28;20741;-88
2021/05/25 00:11:10;;;;;;;9.70;3.25;;;564.00;1792.00;;;;;;5073809;28;20467;-88
2021/05/25 00:13:36;;;;;;;7.65;2.28;;;564.00;1792.00;;;;;;5073948;28;20021;-87
2021/05/25 00:16:02;;;;;;;11.68;2.90;;;564.00;1792.00;;;;;;5072789;28;20124;-87
2021/05/25 00:18:28;;;;;;;12.15;2.70;;;564.00;1792.00;;;;;;5073107;28;20027;-88
2021/05/25 00:20:54;;;;;;;17.55;3.28;;;564.10;1792.00;;;;;;5073478;28;20025;-87
2021/05/25 00:23:20;;;;;;;11.48;3.03;;;564.10;1792.00;;;;;;5079929;28;20499;-87
2021/05/25 00:25:46;;;;;;;17.58;3.15;;;588.80;1792.00;;;;;;5073288;28;20089;-87
2021/05/25 00:28:11;;;;;;;11.65;3.25;;;588.80;1817.60;;;;;;5073336;28;20107;-88
2021/05/25 00:30:37;;;;;;;12.73;2.90;;;564.10;1817.60;;;;;;5074011;28;20023;-88
2021/05/25 00:33:03;;;;;;;4.88;2.35;;;564.10;1817.60;;;;;;5073587;28;20158;-88
2021/05/25 00:35:34;;;;;;;8.20;2.58;;;564.00;1843.20;;;;;;5073132;28;20039;-86
2021/05/25 00:38:00;;;;;;;7.22;2.88;;;564.00;1843.20;;;;;;5072567;28;20025;-87
2021/05/25 00:40:25;;;;;;;9.35;2.35;;;563.90;1868.80;;;;;;5073207;28;20035;-88
2021/05/25 00:42:51;;;;;;;8.73;2.55;;;563.80;1868.80;;;;;;5085603;28;20024;-89
2021/05/25 00:45:18;;;;;;;8.50;2.38;;;563.80;1868.80;;;;;;5073603;28;20033;-88
2021/05/25 00:47:44;;;;;;;8.23;2.58;;;563.90;1894.40;;;;;;5072723;28;20490;-89
2021/05/25 00:50:15;;;;;;;4.95;2.72;;;563.90;1894.40;;;;;;5089329;28;20028;-89
2021/05/25 00:52:50;;;;;;;8.07;2.40;;;563.90;1894.40;;;;;;5072255;28;20034;-89
2021/05/25 00:55:18;;;;;;;11.90;2.50;;;563.90;1894.40;;;;;;5072541;28;20431;-88
2021/05/25 00:57:46;;;;;;;9.55;2.90;;;564.00;1868.80;;;;;;5072309;28;20031;-89
2021/05/25 01:00:14;;;;;;;10.90;2.97;;;564.00;1868.80;;;;;;5072612;28;20048;-89
2021/05/25 01:02:41;;;;;;;9.70;2.67;;;564.10;1868.80;;;;;;5072638;28;20115;-88
2021/05/25 01:05:09;;;;;;;9.98;2.83;;;588.80;1868.80;;;;;;5072086;28;20049;-89
2021/05/25 01:07:35;;;;;;;6.30;2.67;;;564.10;1894.40;;;;;;5073016;28;20025;-89
2021/05/25 01:10:01;;;;;;;6.43;2.00;;;588.80;1894.40;;;;;;5072304;28;20545;-89
2021/05/25 01:12:31;;;;;;;3.33;2.00;;;588.80;1894.40;;;;;;5067324;28;20032;-88
2021/05/25 01:15:03;;;;;;;7.68;2.58;;;564.10;1894.40;;;;;;5089521;28;20033;-89
2021/05/25 01:17:29;;;;;;;9.68;2.97;;;564.10;1920.00;;;;;;5072769;28;20025;-89
2021/05/25 01:19:55;;;;;;;8.38;2.58;;;564.10;1920.00;;;;;;5072397;28;20035;-88
2021/05/25 01:22:20;;;;;;;13.68;3.25;;;564.10;1920.00;;;;;;5072573;28;20024;-89
2021/05/25 01:24:46;;;;;;;9.90;3.53;;;564.10;1920.00;;;;;;5072950;28;20063;-89
2021/05/25 01:27:12;;;;;;;7.13;2.28;;;588.80;1920.00;;;;;;5073992;28;20020;-88
2021/05/25 01:29:38;;;;;;;4.75;2.00;;;588.80;1920.00;;;;;;5075796;28;20448;-87
2021/05/25 01:32:04;;;;;;;11.63;2.53;;;564.10;1920.00;;;;;;5076364;28;20021;-87
2021/05/25 01:34:30;;;;;;;14.73;2.85;;;564.10;1920.00;;;;;;5075535;28;20027;-87
2021/05/25 01:36:56;;;;;;;6.38;3.05;;;564.10;1920.00;;;;;;5078768;28;20110;-88
2021/05/25 01:39:22;;;;;;;5.10;1.98;;;564.10;1945.60;;;;;;5100272;28;20025;-88
2021/05/25 01:41:52;;;;;;;7.40;2.55;;;564.10;1945.60;;;;;;5075813;28;20037;-88
2021/05/25 01:44:18;;;;;;;7.10;2.67;;;564.10;1945.60;;;;;;5076230;28;20020;-87
2021/05/25 01:46:49;;;;;;;6.30;2.58;;;564.10;1945.60;;;;;;5075503;28;20024;-90
2021/05/25 01:49:18;;;;;;;6.70;2.30;;;564.10;1945.60;;;;;;5075792;28;20016;-90
2021/05/25 01:51:48;;;;;;;4.60;2.15;;;564.10;1945.60;;;;;;5075659;28;20028;-91
2021/05/25 01:54:15;;;;;;;5.50;1.90;;;564.00;1945.60;;;;;;5075515;28;20112;-91
2021/05/25 01:56:41;;;;;;;4.38;2.00;;;564.00;1945.60;;;;;;5076775;28;20510;-89
2021/05/25 01:59:07;;;;;;;5.07;2.33;;;564.00;1945.60;;;;;;5075835;28;20033;-89
2021/05/25 02:01:33;;;;;;;5.65;2.17;;;564.00;1945.60;;;;;;5075280;28;20032;-88
2021/05/25 02:03:58;;;;;;;6.55;3.05;;;564.00;1945.60;;;;;;5075109;28;20040;-89
2021/05/25 02:06:24;;;;;;;4.35;2.28;;;563.90;1971.20;;;;;;5092014;28;20496;-90
2021/05/25 02:08:50;;;;;;;4.55;1.88;;;563.90;1971.20;;;;;;5090471;28;20028;-92
2021/05/25 02:11:16;;;;;;;6.72;2.72;;;563.80;1971.20;;;;;;5075767;28;20017;-90
2021/05/25 02:13:42;;;;;;;9.35;2.25;;;563.70;1996.80;;;;;;5075077;28;20029;-88
2021/05/25 02:16:13;;;;;;;4.68;2.22;;;563.70;1996.80;;;;;;5075551;28;20028;-86
2021/05/25 02:18:43;;;;;;;4.35;2.15;;;563.70;1996.80;;;;;;5075519;28;20479;-87
2021/05/25 02:21:09;;;;;;;6.30;2.17;;;563.60;2022.40;;;;;;5075333;28;20034;-87
2021/05/25 02:23:36;;;;;;;10.68;2.75;;;563.60;2022.40;;;;;;5074915;28;20024;-89
2021/05/25 02:26:03;;;;;;;4.38;2.20;;;563.50;2048.00;;;;;;5074747;28;20027;-90
2021/05/25 02:28:29;;;;;;;3.50;2.10;;;563.40;2048.00;;;;;;5076117;28;20093;-91
2021/05/25 02:30:55;;;;;;;5.57;2.22;;;563.40;2048.00;;;;;;5076299;28;20471;-89
2021/05/25 02:33:23;;;;;;;5.32;2.38;;;563.30;2073.60;;;;;;5075049;28;20040;-90
2021/05/25 02:35:54;;;;;;;8.50;2.75;;;563.20;2099.20;;;;;;5075122;28;20033;-89
2021/05/25 02:38:21;;;;;;;5.35;2.30;;;563.20;2099.20;;;;;;5074416;28;20763;-89
2021/05/25 02:40:49;;;;;;;3.45;2.38;;;538.50;2099.20;;;;;;5075401;28;20028;-89
2021/05/25 02:43:17;;;;;;;10.65;3.63;;;538.50;2099.20;;;;;;5089210;28;20511;-88
2021/05/25 02:45:43;;;;;;;5.15;2.30;;;538.40;2124.80;;;;;;5074874;28;20032;-88
2021/05/25 02:48:09;;;;;;;9.27;2.85;;;538.40;2124.80;;;;;;5075303;28;20411;-88
2021/05/25 02:50:36;;;;;;;11.60;2.78;;;538.30;2150.40;;;;;;5075275;28;20031;-88
2021/05/25 02:53:02;;;;;;;5.72;2.70;;;538.10;2150.40;;;;;;5075145;28;20045;-87
2021/05/25 02:55:31;;;;;;;6.18;3.15;;;538.10;2150.40;;;;;;5074771;28;20036;-88
2021/05/25 02:57:59;;;;;;;9.90;3.90;;;538.10;2150.40;;;;;;5075087;28;20123;-88
2021/05/25 03:00:28;;;;;;;15.23;4.13;;;538.10;2176.00;;;;;;5074735;28;20060;-86
2021/05/25 03:02:54;;;;;;;9.35;4.10;;;538.00;2176.00;;;;;;5074506;28;20048;-88
2021/05/25 03:05:22;;;;;;;7.82;3.13;;;538.00;2176.00;;;;;;5073663;28;20083;-87
2021/05/25 03:07:49;;;;;;;9.50;3.92;;;537.90;2176.00;;;;;;5075203;28;20104;-88
2021/05/25 03:10:17;;;;;;;10.43;3.13;;;538.00;2176.00;;;;;;5077575;28;20021;-85
2021/05/25 03:12:43;;;;;;;13.07;4.47;;;537.80;2201.60;;;;;;5083952;28;20032;-86
2021/05/25 03:15:13;;;;;;;9.75;3.08;;;537.80;2201.60;;;;;;5074511;28;20056;-85
2021/05/25 03:17:39;;;;;;;6.07;3.08;;;537.70;2227.20;;;;;;5076285;28;20044;-84
2021/05/25 03:20:07;;;;;;;7.53;2.67;;;537.70;2227.20;;;;;;5078878;28;20021;-87
2021/05/25 03:22:33;;;;;;;5.15;2.78;;;537.70;2227.20;;;;;;5090721;28;20033;-86
2021/05/25 03:24:58;;;;;;;9.48;2.83;;;537.60;2227.20;;;;;;5080362;28;20038;-88
2021/05/25 03:27:25;;;;;;;12.10;3.42;;;537.60;2252.80;;;;;;5071953;28;20021;-89
2021/05/25 03:29:51;;;;;;;7.78;3.33;;;512.90;2227.20;;;;;;5072505;28;20093;-87
2021/05/25 03:32:17;;;;;;;6.78;2.88;;;512.90;2227.20;;;;;;5078477;28;20023;-86
2021/05/25 03:34:43;;;;;;;12.95;4.18;;;512.90;2227.20;;;;;;5075876;28;20036;-88
2021/05/25 03:37:10;;;;;;;5.75;2.95;;;512.90;2227.20;;;;;;5081901;28;20025;-89
2021/05/25 03:39:35;;;;;;;5.03;2.65;;;512.90;2227.20;;;;;;5055656;28;20115;-88
2021/05/25 03:42:01;;;;;;;6.78;2.83;;;512.90;2227.20;;;;;;5075756;28;20052;-88
2021/05/25 03:44:27;;;;;;;7.00;3.00;;;512.90;2227.20;;;;;;5073825;28;20029;-89
2021/05/25 03:46:54;;;;;;;4.05;2.42;;;512.90;2227.20;;;;;;5073445;28;20020;-88
2021/05/25 03:49:20;;;;;;;6.05;2.40;;;512.90;2227.20;;;;;;5072538;28;20017;-88
2021/05/25 03:51:46;;;;;;;5.53;2.60;;;512.80;2252.80;;;;;;5074912;28;20073;-87
2021/05/25 03:54:19;;;;;;;8.43;2.80;;;512.80;2252.80;;;;;;5073028;28;20031;-88
2021/05/25 03:59:34;;;;;;;13.40;3.67;;;512.80;2252.80;;;;;;5059685;28;20062;-87
2021/05/25 04:02:00;;;;;;;3.53;2.92;;;512.90;2252.80;;;;;;5052180;28;20037;-88
2021/05/25 04:04:25;;;;;;;10.55;2.80;;;512.90;2252.80;;;;;;5051983;28;20435;-87
2021/05/25 04:06:51;;;;;;;6.00;3.22;;;512.90;2252.80;;;;;;5051954;28;20028;-86
2021/05/25 04:09:17;;;;;;;6.28;3.25;;;537.60;2278.40;;;;;;5052288;28;20025;-88
2021/05/25 04:11:42;;;;;;;13.40;3.25;;;537.60;2278.40;;;;;;5052068;28;20036;-87
2021/05/25 04:14:08;;;;;;;6.28;2.83;;;537.60;2304.00;;;;;;5051969;28;20017;-88
2021/05/25 04:16:34;;;;;;;4.18;2.88;;;537.60;2304.00;;;;;;5051743;28;20116;-87
2021/05/25 04:19:00;;;;;;;9.35;2.88;;;537.70;2304.00;;;;;;5051888;28;20028;-87
2021/05/25 04:21:26;;;;;;;6.10;2.95;;;537.70;2304.00;;;;;;5050521;28;20039;-89
2021/05/25 04:23:52;;;;;;;6.30;3.13;;;537.70;2304.00;;;;;;5059042;28;20041;-88
2021/05/25 04:26:17;;;;;;;6.95;3.20;;;537.70;2304.00;;;;;;5069067;28;20055;-86
2021/05/25 04:28:43;;;;;;;12.35;3.58;;;537.70;2304.00;;;;;;5069263;28;20059;-88
2021/05/25 04:31:09;;;;;;;5.70;3.08;;;537.80;2304.00;;;;;;5053629;28;20090;-86
2021/05/25 04:33:35;;;;;;;10.10;3.38;;;537.80;2304.00;;;;;;5062192;28;20028;-84
2021/05/25 04:36:00;;;;;;;13.65;4.15;;;537.80;2304.00;;;;;;5062813;28;20045;-90
2021/05/25 04:38:26;;;;;;;11.18;3.65;;;537.90;2304.00;;;;;;5082209;28;20059;-87
2021/05/25 04:40:52;;;;;;;13.05;5.75;;;538.00;2304.00;;;;;;5075007;28;20024;-85
2021/05/25 04:43:17;;;;;;;15.57;4.95;;;538.00;2304.00;;;;;;5085020;28;20020;-89
2021/05/25 04:45:44;;;;;;;9.88;4.28;;;537.90;2304.00;;;;;;5078756;28;20174;-86
2021/05/25 04:48:10;;;;;;;6.15;3.42;;;538.00;2304.00;;;;;;5064554;28;20082;-91
2021/05/25 04:50:38;;;;;;;9.80;3.53;;;538.00;2304.00;;;;;;5074525;28;20025;-91
2021/05/25 04:53:04;;;;;;;9.82;3.25;;;538.00;2304.00;;;;;;5076530;28;20056;-90
2021/05/25 04:55:29;;;;;;;10.70;3.63;;;538.10;2304.00;;;;;;5075542;28;20109;-90
2021/05/25 04:57:55;;;;;;;11.32;3.33;;;538.10;2304.00;;;;;;5074246;28;20029;-90
2021/05/25 05:00:24;;;;;;;7.93;3.25;;;538.10;2304.00;;;;;;5071934;28;20025;-90
2021/05/25 05:02:50;;;;;;;5.88;3.03;;;538.10;2278.40;;;;;;5077529;28;20024;-91
2021/05/25 05:05:16;;;;;;;4.40;3.03;;;538.30;2278.40;;;;;;5078843;28;20052;-91
2021/05/25 05:07:42;;;;;;;15.80;3.85;;;538.40;2278.40;;;;;;5069531;28;20124;-91
2021/05/25 05:10:08;;;;;;;7.68;3.22;;;538.40;2278.40;;;;;;5067252;28;20051;-90
2021/05/25 05:12:34;;;;;;;5.38;2.90;;;538.30;2278.40;;;;;;5087286;28;20039;-87
2021/05/25 05:15:00;;;;;;;9.90;3.55;;;563.20;2278.40;;;;;;5073339;28;20033;-87
2021/05/25 05:17:27;;;;;;;8.07;3.03;;;563.30;2278.40;;;;;;5062454;28;20486;-89
2021/05/25 05:19:53;;;;;;;7.38;3.05;;;563.30;2278.40;;;;;;5060624;28;20090;-87
2021/05/25 05:22:19;;;;;;;10.27;3.03;;;563.40;2278.40;;;;;;5072251;28;20023;-89
2021/05/25 05:24:45;;;;;;;11.10;3.95;;;563.50;2278.40;;;;;;5072860;28;20467;-90
2021/05/25 05:27:12;;;;;;;6.03;3.58;;;563.60;2252.80;;;;;;5078548;28;20032;-91
2021/05/25 05:29:37;;;;;;;9.88;3.75;;;563.60;2252.80;;;;;;5072771;28;20029;-89
2021/05/25 05:32:03;;;;;;;11.05;3.30;;;563.70;2227.20;;;;;;5088439;28;20035;-89
2021/05/25 05:34:29;;;;;;;8.57;3.72;;;563.90;2227.20;;;;;;5084087;28;20036;-89
2021/05/25 05:36:55;;;;;;;6.90;3.95;;;563.90;2227.20;;;;;;5077800;28;20479;-90
2021/05/25 05:39:21;;;;;;;5.70;3.35;;;564.00;2227.20;;;;;;5077359;28;20106;-91
2021/05/25 05:41:47;;;;;;;11.25;4.18;;;588.80;2201.60;;;;;;5070178;28;20479;-91
2021/05/25 05:44:13;;;;;;;7.30;3.72;;;588.80;2176.00;;;;;;5070520;28;20104;-92
2021/05/25 05:46:39;;;;;;;6.13;3.22;;;588.90;2176.00;;;;;;5079594;28;20479;-92
2021/05/25 05:49:04;;;;;;;12.10;3.15;;;588.80;2201.60;;;;;;5087109;28;20107;-89
2021/05/25 05:51:31;;;;;;;7.70;3.72;;;588.90;2201.60;;;;;;5079850;28;20023;-89
2021/05/25 05:53:57;;;;;;;7.10;3.47;;;588.90;2201.60;;;;;;5079832;28;20028;-88
2021/05/25 05:56:23;;;;;;;6.60;3.13;;;589.10;2150.40;;;;;;5082536;28;20024;-88
2021/05/25 05:58:50;;;;;;;6.00;3.28;;;589.10;2150.40;;;;;;5079498;28;20037;-89
2021/05/25 06:01:16;;;;;;;10.18;4.45;;;589.20;2150.40;;;;;;5081543;28;20054;-89
2021/05/25 06:03:43;;;;;;;4.60;3.13;;;589.30;2150.40;;;;;;5077193;28;20531;-89
2021/05/25 06:06:11;;;;;;;7.78;3.42;;;589.30;2150.40;;;;;;5082977;28;20048;-89
2021/05/25 06:08:38;;;;;;;5.68;3.15;;;589.50;2124.80;;;;;;5076666;28;20040;-89
2021/05/25 06:11:04;;;;;;;6.78;4.00;;;589.60;2124.80;;;;;;5071975;28;20445;-88
2021/05/25 06:13:30;;;;;;;5.18;3.30;;;589.70;2124.80;;;;;;5078474;28;20099;-87
2021/05/25 06:16:01;;;;;;;4.88;3.67;;;614.40;2099.20;;;;;;5087752;28;20077;-90
2021/05/25 06:18:27;;;;;;;7.38;4.30;;;614.50;2073.60;;;;;;5092431;28;20020;-88
2021/05/25 06:20:52;;;;;;;8.38;3.03;;;614.70;2073.60;;;;;;5086939;28;20035;-89
2021/05/25 06:23:18;;;;;;;8.23;3.28;;;614.50;2099.20;;;;;;5097384;28;20056;-87
2021/05/25 06:25:46;;;;;;;9.20;4.43;;;614.60;2073.60;;;;;;5084253;28;20028;-87
2021/05/25 06:28:11;;;;;;;5.78;3.42;;;614.70;2099.20;;;;;;5074790;28;20024;-88
2021/05/25 06:30:38;;;;;;;4.28;3.20;;;614.70;2099.20;;;;;;5083855;28;20032;-88
2021/05/25 06:33:04;;;;;;;9.50;4.47;;;614.60;2099.20;;;;;;5074871;28;20021;-88
2021/05/25 06:35:31;;;;;;;6.28;3.53;;;614.80;2073.60;;;;;;5063506;28;20526;-88
2021/05/25 06:37:57;;;;;;;8.27;3.50;;;614.80;2073.60;;;;;;5065740;28;20029;-85
2021/05/25 06:40:23;;;;;;;9.68;3.90;;;614.80;2073.60;;;;;;5069723;28;20030;-86
2021/05/25 06:42:49;;;;;;;7.70;3.50;;;615.20;2022.40;;;;;;5072834;28;20033;-89
2021/05/25 06:45:14;;;;;;;5.95;3.35;;;640.10;1996.80;;;;;;5088953;28;20542;-87
2021/05/25 06:47:40;;;;;;;4.70;3.08;;;640.50;1971.20;;;;;;5067359;28;20053;-89
2021/05/25 06:50:07;;;;;;;6.80;3.13;;;640.70;1945.60;;;;;;5072605;28;20035;-89
2021/05/25 06:52:33;;;;;;;6.65;3.35;;;665.70;1971.20;;;;;;5074008;28;20047;-87
2021/05/25 06:55:00;;;;;;;4.80;2.95;;;665.70;1971.20;;;;;;5074485;28;20029;-84
2021/05/25 06:57:26;;;;;;;5.28;3.83;;;640.60;1945.60;;;;;;5074615;28;20069;-85
2021/05/25 06:59:53;;;;;;;9.23;4.18;;;665.60;1971.20;;;;;;5066091;28;20046;-85
2021/05/25 07:02:22;;;;;;;5.13;3.08;;;665.60;1971.20;;;;;;5067330;28;20024;-85
2021/05/25 07:04:51;;;;;;;5.82;3.13;;;665.80;1945.60;;;;;;5071947;28;20387;-86
2021/05/25 07:07:18;;;;;;;6.65;3.20;;;665.70;1945.60;;;;;;5083248;28;20016;-86
2021/05/25 07:09:45;;;;;;;7.53;3.72;;;665.80;1945.60;;;;;;5077086;28;20506;-85
2021/05/25 07:12:11;;;;;;;7.68;3.50;;;666.10;1920.00;;;;;;5076181;28;20044;-85
2021/05/25 07:14:37;;;;;;;6.32;4.15;;;666.30;1894.40;;;;;;5076597;28;20506;-85
2021/05/25 07:17:03;;;;;;;5.80;2.88;;;666.40;1894.40;;;;;;5073785;28;20024;-85
2021/05/25 07:19:29;;;;;;;10.60;3.30;;;691.20;1894.40;;;;;;5072284;28;20064;-85
2021/05/25 07:21:55;;;;;;;4.40;3.47;;;666.20;1894.40;;;;;;5070904;28;20032;-86
2021/05/25 07:24:21;;;;;;;4.88;3.38;;;691.20;1894.40;;;;;;5064201;28;20399;-86
2021/05/25 07:26:47;;;;;;;6.05;3.40;;;691.20;1868.80;;;;;;5071620;28;20024;-85
2021/05/25 07:29:12;;;;;;;6.70;2.85;;;691.40;1868.80;;;;;;5075933;28;20916;-86
2021/05/25 07:31:38;;;;;;;5.78;3.47;;;691.50;1843.20;;;;;;5072142;28;20512;-85
2021/05/25 07:34:04;;;;;;;6.00;3.00;;;691.80;1843.20;;;;;;5069871;28;20488;-85
2021/05/25 07:36:30;;;;;;;6.57;3.05;;;692.10;1817.60;;;;;;5083787;28;20582;-86
2021/05/25 07:38:56;;;;;;;7.75;3.00;;;717.00;1817.60;;;;;;5067357;28;20115;-85
2021/05/25 07:41:22;;;;;;;7.75;3.50;;;717.00;1817.60;;;;;;5069568;28;20024;-85
2021/05/25 07:43:47;;;;;;;5.15;3.25;;;717.60;1792.00;;;;;;5067096;28;20032;-88
2021/05/25 07:46:14;;;;;;;8.07;3.20;;;717.30;1792.00;;;;;;5073043;28;20505;-89
2021/05/25 07:48:40;;;;;;;6.40;3.33;;;717.60;1792.00;;;;;;5080206;28;20021;-87
2021/05/25 07:51:06;;;;;;;7.90;3.50;;;717.60;1766.40;;;;;;5078731;28;20016;-89
2021/05/25 07:53:32;;;;;;;6.80;3.63;;;717.50;1766.40;;;;;;5068825;28;20087;-89
2021/05/25 07:55:58;;;;;;;12.55;5.30;;;717.70;1740.80;;;;;;5076810;28;20047;-88
2021/05/25 07:58:24;;;;;;;4.97;3.17;;;742.70;1766.40;;;;;;5066023;28;20506;-88
2021/05/25 08:00:51;;;;;;;6.32;3.47;;;742.70;1740.80;;;;;;5067078;28;20033;-87
2021/05/25 08:03:18;;;;;;;9.27;3.85;;;742.80;1740.80;;;;;;5070863;28;20419;-88
2021/05/25 08:05:44;;;;;;;8.30;3.45;;;742.80;1715.20;;;;;;5069677;28;20056;-88
2021/05/25 08:08:10;;;;;;;5.43;3.13;;;742.90;1740.80;;;;;;5068370;28;20025;-91
2021/05/25 08:10:36;;;;;;;6.45;3.58;;;743.10;1715.20;;;;;;5075880;28;20020;-89
2021/05/25 08:13:04;;;;;;;6.13;3.47;;;743.00;1715.20;;;;;;5064804;28;20024;-89
2021/05/25 08:15:31;;;;;;;10.98;3.97;;;768.00;1689.60;;;;;;5068999;28;20508;-88
2021/05/25 08:20:33;;;;;;;7.07;4.00;;;768.30;1664.00;;;;;;5063887;28;20483;-88
2021/05/25 08:23:00;;;;;;;12.07;4.07;;;768.70;1638.40;;;;;;5063384;28;20032;-88
2021/05/25 08:25:30;;;;;;;12.10;4.70;;;768.80;1612.80;;;;;;5063925;28;20031;-88
2021/05/25 08:27:57;;;;;;;11.98;4.13;;;768.00;1689.60;;;;;;5073357;28;20017;-86
2021/05/25 08:30:26;;;;;;;6.65;3.50;;;743.20;1689.60;;;;;;5067858;28;20013;-87
2021/05/25 08:32:52;;;;;;;6.93;3.67;;;768.40;1638.40;;;;;;5071693;28;20593;-87
2021/05/25 08:35:19;;;;;;;9.77;3.88;;;768.70;1612.80;;;;;;5073491;28;20040;-90
2021/05/25 08:37:49;;;;;;;7.38;3.90;;;793.70;1638.40;;;;;;5064840;28;20029;-90
2021/05/25 08:40:18;;;;;;;14.10;3.63;;;794.00;1612.80;;;;;;5069535;28;20056;-89
2021/05/25 08:42:46;;;;;;;9.63;3.65;;;794.40;1587.20;;;;;;5064058;28;20388;-89
2021/05/25 08:45:12;;;;;;;6.03;3.53;;;794.10;1612.80;;;;;;5063548;28;20036;-89
2021/05/25 08:47:38;;;;;;;7.85;3.42;;;794.10;1587.20;;;;;;5071631;28;20097;-88
2021/05/25 08:50:06;;;;;;;8.18;3.72;;;794.40;1587.20;;;;;;5062265;28;20539;-88
2021/05/25 08:52:32;;;;;;;5.20;3.30;;;819.40;1561.60;;;;;;5068644;28;20021;-88
2021/05/25 08:54:58;;;;;;;7.10;4.43;;;819.70;1536.00;;;;;;5071744;28;20027;-88
2021/05/25 08:57:24;;;;;;;9.63;4.90;;;794.30;1612.80;;;;;;5068246;28;20478;-88
2021/05/25 08:59:49;;;;;;;10.23;4.00;;;794.10;1638.40;;;;;;5087922;28;20120;-83
2021/05/25 09:02:15;;;;;;;7.18;4.85;;;819.20;1587.20;;;;;;5072553;28;20503;-88
2021/05/25 09:04:58;;;;;;;7.22;4.28;;;794.20;1587.20;;;;;;5072590;28;20094;-88
2021/05/25 09:07:42;;;;;;;10.52;4.78;;;819.30;1561.60;;;;;;5074155;28;20049;-88
2021/05/25 09:10:19;;;;;;;8.43;4.38;;;819.70;1536.00;;;;;;5068285;28;20036;-87
2021/05/25 09:12:52;;;;;;;8.00;4.20;;;820.00;1510.40;;;;;;5077847;28;20025;-88
2021/05/25 09:15:38;;;;;;;10.43;3.90;;;844.80;1510.40;;;;;;5072750;28;20376;-89
2021/05/25 09:18:05;;;;;;;;;;;844.90;1536.00;;;;;;5072306;28;20059;-89
2021/05/25 09:20:51;;;;;;;6.88;4.13;;;844.80;1510.40;;;;;;5072555;28;19909;-88
2021/05/25 09:23:43;;;;;;;12.40;4.95;;;845.30;1484.80;;;;;;5082690;28;20075;-88
2021/05/25 09:26:29;;;;;;;7.80;4.18;;;845.00;1484.80;;;;;;5066906;28;20088;-87
2021/05/25 09:28:54;;;;;;;;;;;845.20;1484.80;;;;;;5083914;28;20028;-88
2021/05/25 09:31:25;;;;;;;;;;;844.80;1484.80;;;;;;5075181;28;19919;-88
2021/05/25 09:34:11;;;;;;;6.43;4.72;;;845.30;1459.20;;;;;;5063495;28;19915;-87
2021/05/25 09:36:59;;;;;;;11.65;5.20;;;845.00;1459.20;;;;;;5058369;28;20094;-87
2021/05/25 09:39:29;;;;;;;8.98;4.72;;;845.20;1484.80;;;;;;5084557;28;20017;-88
2021/05/25 09:42:06;;;;;;;10.65;4.25;;;845.70;1382.40;;;;;;5066965;28;20059;-86
2021/05/25 09:44:34;;;;;;;5.65;4.25;;;870.40;1331.20;;;;;;5073082;28;20021;-88
2021/05/25 09:47:02;;;;;;;14.65;5.47;;;845.60;1356.80;;;;;;5068702;28;20031;-88
2021/05/25 09:49:28;;;;;;;9.93;6.68;;;845.70;1331.20;;;;;;5071930;28;20028;-87
2021/05/25 09:52:09;;;;;;;7.28;5.03;;;870.40;1356.80;;;;;;5066106;28;20029;-86
2021/05/25 09:54:36;;;;;;;11.23;6.72;;;870.60;1305.60;;;;;;5073065;28;20029;-85
2021/05/25 09:57:05;;;;;;;8.77;4.22;;;870.70;1228.80;;;;;;5090281;28;20123;-87
2021/05/25 09:59:32;;;;;;;8.98;4.03;;;870.80;1228.80;;;;;;5071048;28;20697;-88
2021/05/25 10:02:28;;;;;;;6.60;4.05;;;896.30;1152.00;;;;;;5072137;28;20033;-86
2021/05/25 10:05:01;;;;;;;8.07;4.97;;;896.30;1177.60;;;;;;5050332;28;20045;-85
2021/05/25 10:07:28;;;;;;;10.88;4.78;;;896.80;1152.00;;;;;;5043546;28;20060;-86
2021/05/25 10:09:57;;;;;;;7.63;4.13;;;896.30;1177.60;;;;;;5035591;28;20025;-87
2021/05/25 10:12:27;;;;;;;7.95;4.00;;;896.00;1203.20;;;;;;5044957;28;20052;-86
2021/05/25 10:14:53;;;;;;;8.90;4.40;;;871.30;1177.60;;;;;;5040968;28;20047;-86
2021/05/25 10:20:00;;;;;;;8.77;4.57;;;896.10;1152.00;;;;;;5045028;28;20033;-86
2021/05/25 10:22:26;;;;;;;6.88;3.55;;;896.50;1126.40;;;;;;5042970;28;20037;-87
2021/05/25 10:24:53;;;;;;;6.55;3.83;;;896.90;1075.20;;;;;;5047401;28;20037;-86
2021/05/25 10:27:19;;;;;;;9.15;3.70;;;922.20;1100.80;;;;;;5042101;28;20118;-87
2021/05/25 10:29:44;;;;;;;9.43;3.83;;;947.50;1049.60;;;;;;5045325;28;20072;-84
2021/05/25 10:32:23;;;;;;;4.95;3.28;;;922.50;1049.60;;;;;;5032632;28;20021;-84
2021/05/25 10:34:52;;;;;;;9.40;3.85;;;922.10;1049.60;;;;;;5028267;28;20033;-87
2021/05/25 10:37:19;;;;;;;13.32;4.38;;;921.80;1049.60;;;;;;5031918;28;20029;-87
2021/05/25 10:39:46;;;;;;;5.85;3.90;;;922.00;1049.60;;;;;;5048630;28;20021;-88
2021/05/25 10:42:18;;;;;;;9.82;3.85;;;922.10;1049.60;;;;;;5062403;28;20480;-86
2021/05/25 10:44:44;;;;;;;6.18;4.18;;;896.90;1049.60;;;;;;5096133;28;20043;-87
2021/05/25 10:47:24;;;;;;;13.60;3.78;;;921.90;1049.60;;;;;;5076422;28;20047;-87
2021/05/25 10:49:57;;;;;;;11.65;4.57;;;922.40;1024.00;;;;;;5068779;28;20032;-86
2021/05/25 10:52:24;;;;;;;7.20;3.80;;;947.20;1024.00;;;;;;5073044;28;20081;-87
2021/05/25 10:54:53;;;;;;;8.68;3.78;;;947.30;1024.00;;;;;;5073746;28;20048;-87
2021/05/25 10:57:47;;;;;;;6.00;3.40;;;922.20;1024.00;;;;;;5082238;28;20025;-87
2021/05/25 11:00:15;;;;;;;6.72;3.38;;;947.20;998.40;;;;;;5077389;28;20027;-86
2021/05/25 11:02:52;;;;;;;7.57;3.10;;;947.50;972.80;;;;;;5080211;28;20028;-86
2021/05/25 11:05:36;;;;;;;7.82;4.95;;;922.50;998.40;;;;;;5077421;28;20069;-86
2021/05/25 11:08:08;;;;;;;8.25;4.32;;;922.40;1024.00;;;;;;5079304;28;20027;-86
2021/05/25 11:10:41;;;;;;;14.20;3.78;;;947.40;972.80;;;;;;5064624;28;20707;-87
2021/05/25 11:13:20;;;;;;;6.82;3.35;;;947.50;947.20;;;;;;5086072;28;20471;-87
2021/05/25 11:16:09;;;;;;;8.65;3.55;;;947.50;921.60;;;;;;5069667;28;20402;-88
2021/05/25 11:19:03;;;;;;;5.72;3.03;;;922.10;947.20;;;;;;5006077;28;20068;-88
2021/05/25 11:24:36;;;;;;;12.10;3.67;;;947.40;921.60;;;;;;5010795;28;20041;-87
2021/05/25 11:27:14;;;;;;;7.20;3.70;;;947.40;921.60;;;;;;4990084;28;20128;-88
2021/05/25 11:29:49;;;;;;;7.68;2.97;;;947.70;921.60;;;;;;4994324;28;20022;-86
2021/05/25 11:32:21;;;;;;;11.23;3.10;;;947.60;921.60;;;;;;5005854;28;20030;-86
2021/05/25 11:34:54;;;;;;;11.10;3.50;;;922.50;921.60;;;;;;4995840;28;20038;-88
2021/05/25 11:37:20;;;;;;;8.77;3.13;;;922.00;972.80;;;;;;5010886;28;20489;-87
2021/05/25 11:39:47;;;;;;;7.30;3.55;;;922.10;947.20;;;;;;5002292;28;20084;-88
2021/05/25 11:42:13;;;;;;;12.75;3.78;;;922.30;947.20;;;;;;4994330;28;20041;-88
2021/05/25 11:44:42;;;;;;;9.95;3.38;;;947.40;947.20;;;;;;5005975;28;20038;-89
2021/05/25 11:47:10;;;;;;;5.10;3.22;;;922.40;947.20;;;;;;5006205;28;20113;-85
2021/05/25 11:49:41;;;;;;;8.88;3.13;;;947.30;947.20;;;;;;4989713;28;20034;-85
2021/05/25 11:52:33;;;;;;;8.32;3.70;;;922.50;921.60;;;;;;4993835;28;20481;-82
2021/05/25 11:55:08;;;;;;;7.28;3.20;;;922.50;947.20;;;;;;5011850;28;20028;-87
2021/05/25 11:57:38;;;;;;;7.25;3.58;;;922.00;998.40;;;;;;5076586;28;20025;-86
2021/05/25 12:00:36;;;;;;;10.35;3.92;;;921.60;998.40;;;;;;5067779;28;20021;-86
2021/05/25 12:03:05;;;;;;;12.68;5.20;;;896.70;972.80;;;;;;5019685;28;20030;-88
2021/05/25 12:05:32;;;;;;;7.53;3.17;;;921.80;998.40;;;;;;5037686;28;20192;-86
2021/05/25 12:08:01;;;;;;;6.30;3.13;;;896.70;972.80;;;;;;5019231;28;20049;-86
2021/05/25 12:10:41;;;;;;;15.73;3.90;;;922.10;947.20;;;;;;5031630;28;20075;-85
2021/05/25 12:13:13;;;;;;;15.32;3.60;;;947.30;921.60;;;;;;5030405;28;20037;-85
2021/05/25 12:15:40;;;;;;;12.40;4.63;;;947.40;921.60;;;;;;5020188;28;20034;-86
2021/05/25 12:18:10;;;;;;;11.25;3.58;;;947.50;921.60;;;;;;5026182;28;20079;-87
2021/05/25 12:20:49;;;;;;;6.65;2.85;;;947.90;896.00;;;;;;5031762;28;20046;-87
2021/05/25 12:23:19;;;;;;;10.55;4.18;;;947.50;896.00;;;;;;5001103;28;20038;-88
2021/05/25 12:25:50;;;;;;;11.65;4.55;;;947.30;921.60;;;;;;5015270;28;20065;-87
2021/05/25 12:28:23;;;;;;;13.70;6.28;;;922.00;947.20;;;;;;5011238;28;20392;-88
2021/05/25 12:30:54;;;;;;;7.68;3.33;;;921.70;972.80;;;;;;5031313;28;20021;-86
2021/05/25 12:33:30;;;;;;;13.23;4.22;;;921.90;947.20;;;;;;5030389;28;20527;-88